sensor_id;sensor_type;location;lat;lon;timestamp;P1;durP1;ratioP1;P2;durP2;ratioP2
14817;SDS011;7500;57.698;11.986;2022-10-16T00:00:38;18.90;;;8.53;;
14817;SDS011;7500;57.698;11.986;2022-10-16T00:03:05;17.20;;;7.40;;
14817;SDS011;7500;57.698;11.986;2022-10-16T00:05:37;18.70;;;7.03;;
14817;SDS011;7500;57.698;11.986;2022-10-16T00:08:05;17.67;;;6.67;;
14817;SDS011;7500;57.698;11.986;2022-10-16T00:10:31;14.63;;;5.93;;
14817;SDS011;7500;57.698;11.986;2022-10-16T00:12:58;17.80;;;5.53;;
14817;SDS011;7500;57.698;11.986;2022-10-16T00:15:25;14.40;;;5.00;;
14817;SDS011;7500;57.698;11.986;2022-10-16T00:17:53;10.17;;;4.60;;
14817;SDS011;7500;57.698;11.986;2022-10-16T00:20:20;10.87;;;4.73;;
14817;SDS011;7500;57.698;11.986;2022-10-16T00:22:47;11.53;;;4.67;;
14817;SDS011;7500;57.698;11.986;2022-10-16T00:25:14;13.53;;;3.90;;
14817;SDS011;7500;57.698;11.986;2022-10-16T00:27:41;11.73;;;3.63;;
14817;SDS011;7500;57.698;11.986;2022-10-16T00:30:08;13.03;;;4.17;;
14817;SDS011;7500;57.698;11.986;2022-10-16T00:32:35;12.53;;;3.70;;
14817;SDS011;7500;57.698;11.986;2022-10-16T00:35:04;15.77;;;3.90;;
14817;SDS011;7500;57.698;11.986;2022-10-16T00:37:31;9.80;;;3.60;;
14817;SDS011;7500;57.698;11.986;2022-10-16T00:39:58;12.23;;;3.47;;
14817;SDS011;7500;57.698;11.986;2022-10-16T00:42:25;15.00;;;3.67;;
14817;SDS011;7500;57.698;11.986;2022-10-16T00:44:52;11.77;;;3.77;;
14817;SDS011;7500;57.698;11.986;2022-10-16T00:47:22;6.77;;;3.20;;
14817;SDS011;7500;57.698;11.986;2022-10-16T00:49:53;9.83;;;3.00;;
14817;SDS011;7500;57.698;11.986;2022-10-16T00:52:26;9.90;;;3.53;;
14817;SDS011;7500;57.698;11.986;2022-10-16T00:54:53;10.60;;;3.23;;
14817;SDS011;7500;57.698;11.986;2022-10-16T00:57:21;10.90;;;2.90;;
14817;SDS011;7500;57.698;11.986;2022-10-16T00:59:48;11.80;;;2.63;;
14817;SDS011;7500;57.698;11.986;2022-10-16T01:02:16;12.40;;;3.03;;
14817;SDS011;7500;57.698;11.986;2022-10-16T01:04:44;12.03;;;3.20;;
14817;SDS011;7500;57.698;11.986;2022-10-16T01:07:14;12.37;;;2.77;;
14817;SDS011;7500;57.698;11.986;2022-10-16T01:09:54;8.20;;;3.00;;
14817;SDS011;7500;57.698;11.986;2022-10-16T01:12:32;9.77;;;2.57;;
14817;SDS011;7500;57.698;11.986;2022-10-16T01:15:06;10.67;;;2.80;;
14817;SDS011;7500;57.698;11.986;2022-10-16T01:17:38;9.53;;;2.30;;
14817;SDS011;7500;57.698;11.986;2022-10-16T01:20:10;9.73;;;2.73;;
14817;SDS011;7500;57.698;11.986;2022-10-16T01:22:47;7.50;;;2.23;;
14817;SDS011;7500;57.698;11.986;2022-10-16T01:25:34;9.13;;;2.57;;
14817;SDS011;7500;57.698;11.986;2022-10-16T01:28:15;9.73;;;2.73;;
14817;SDS011;7500;57.698;11.986;2022-10-16T01:30:48;7.17;;;2.40;;
14817;SDS011;7500;57.698;11.986;2022-10-16T01:33:20;11.03;;;2.60;;
14817;SDS011;7500;57.698;11.986;2022-10-16T01:35:52;9.57;;;2.43;;
14817;SDS011;7500;57.698;11.986;2022-10-16T01:38:22;9.30;;;3.17;;
14817;SDS011;7500;57.698;11.986;2022-10-16T01:40:57;11.53;;;2.37;;
14817;SDS011;7500;57.698;11.986;2022-10-16T01:43:30;10.90;;;2.83;;
14817;SDS011;7500;57.698;11.986;2022-10-16T01:46:01;13.33;;;2.93;;
14817;SDS011;7500;57.698;11.986;2022-10-16T01:48:29;7.30;;;2.50;;
14817;SDS011;7500;57.698;11.986;2022-10-16T01:50:59;14.97;;;2.50;;
14817;SDS011;7500;57.698;11.986;2022-10-16T01:53:30;8.53;;;2.80;;
14817;SDS011;7500;57.698;11.986;2022-10-16T01:55:57;12.50;;;2.43;;
14817;SDS011;7500;57.698;11.986;2022-10-16T01:58:26;9.37;;;2.50;;
14817;SDS011;7500;57.698;11.986;2022-10-16T02:00:59;8.23;;;2.47;;
14817;SDS011;7500;57.698;11.986;2022-10-16T02:03:28;13.47;;;2.90;;
14817;SDS011;7500;57.698;11.986;2022-10-16T02:05:56;9.80;;;2.50;;
14817;SDS011;7500;57.698;11.986;2022-10-16T02:08:25;9.00;;;2.47;;
14817;SDS011;7500;57.698;11.986;2022-10-16T02:10:54;7.87;;;2.27;;
14817;SDS011;7500;57.698;11.986;2022-10-16T02:13:22;8.83;;;2.80;;
14817;SDS011;7500;57.698;11.986;2022-10-16T02:15:53;11.30;;;2.50;;
14817;SDS011;7500;57.698;11.986;2022-10-16T02:18:20;9.83;;;2.77;;
14817;SDS011;7500;57.698;11.986;2022-10-16T02:20:48;10.17;;;2.57;;
14817;SDS011;7500;57.698;11.986;2022-10-16T02:23:26;10.97;;;2.77;;
14817;SDS011;7500;57.698;11.986;2022-10-16T02:26:03;14.70;;;2.70;;
14817;SDS011;7500;57.698;11.986;2022-10-16T02:28:34;9.67;;;2.70;;
14817;SDS011;7500;57.698;11.986;2022-10-16T02:31:08;12.07;;;2.67;;
14817;SDS011;7500;57.698;11.986;2022-10-16T02:33:39;8.97;;;2.80;;
14817;SDS011;7500;57.698;11.986;2022-10-16T02:36:08;11.27;;;3.07;;
14817;SDS011;7500;57.698;11.986;2022-10-16T02:38:35;14.20;;;2.93;;
14817;SDS011;7500;57.698;11.986;2022-10-16T02:41:04;10.37;;;2.20;;
14817;SDS011;7500;57.698;11.986;2022-10-16T02:43:31;11.20;;;3.17;;
14817;SDS011;7500;57.698;11.986;2022-10-16T02:45:58;9.37;;;2.60;;
14817;SDS011;7500;57.698;11.986;2022-10-16T02:48:26;13.07;;;2.63;;
14817;SDS011;7500;57.698;11.986;2022-10-16T02:50:53;11.63;;;2.90;;
14817;SDS011;7500;57.698;11.986;2022-10-16T02:53:20;12.37;;;2.50;;
14817;SDS011;7500;57.698;11.986;2022-10-16T02:55:47;9.50;;;3.13;;
14817;SDS011;7500;57.698;11.986;2022-10-16T02:58:13;13.30;;;2.77;;
14817;SDS011;7500;57.698;11.986;2022-10-16T03:00:40;9.33;;;2.53;;
14817;SDS011;7500;57.698;11.986;2022-10-16T03:03:07;9.50;;;2.60;;
14817;SDS011;7500;57.698;11.986;2022-10-16T03:05:35;9.03;;;2.60;;
14817;SDS011;7500;57.698;11.986;2022-10-16T03:08:02;14.60;;;2.83;;
14817;SDS011;7500;57.698;11.986;2022-10-16T03:10:29;9.63;;;3.13;;
14817;SDS011;7500;57.698;11.986;2022-10-16T03:12:56;12.90;;;2.80;;
14817;SDS011;7500;57.698;11.986;2022-10-16T03:15:23;15.20;;;2.90;;
14817;SDS011;7500;57.698;11.986;2022-10-16T03:17:50;12.87;;;2.73;;
14817;SDS011;7500;57.698;11.986;2022-10-16T03:20:17;10.70;;;2.70;;
14817;SDS011;7500;57.698;11.986;2022-10-16T03:22:46;9.13;;;2.10;;
14817;SDS011;7500;57.698;11.986;2022-10-16T03:25:13;11.73;;;2.63;;
14817;SDS011;7500;57.698;11.986;2022-10-16T03:27:39;9.37;;;2.93;;
14817;SDS011;7500;57.698;11.986;2022-10-16T03:30:07;8.83;;;2.87;;
14817;SDS011;7500;57.698;11.986;2022-10-16T03:32:35;12.60;;;2.77;;
14817;SDS011;7500;57.698;11.986;2022-10-16T03:35:01;9.87;;;3.07;;
14817;SDS011;7500;57.698;11.986;2022-10-16T03:37:28;11.30;;;3.23;;
14817;SDS011;7500;57.698;11.986;2022-10-16T03:39:56;12.67;;;2.67;;
14817;SDS011;7500;57.698;11.986;2022-10-16T03:42:24;13.73;;;2.87;;
14817;SDS011;7500;57.698;11.986;2022-10-16T03:44:51;12.17;;;2.90;;
14817;SDS011;7500;57.698;11.986;2022-10-16T03:47:17;13.90;;;3.17;;
14817;SDS011;7500;57.698;11.986;2022-10-16T03:49:46;12.73;;;3.00;;
14817;SDS011;7500;57.698;11.986;2022-10-16T03:52:13;11.80;;;3.13;;
14817;SDS011;7500;57.698;11.986;2022-10-16T03:54:40;11.63;;;2.77;;
14817;SDS011;7500;57.698;11.986;2022-10-16T03:57:08;12.37;;;3.00;;
14817;SDS011;7500;57.698;11.986;2022-10-16T03:59:35;9.30;;;2.70;;
14817;SDS011;7500;57.698;11.986;2022-10-16T04:02:02;11.00;;;3.10;;
14817;SDS011;7500;57.698;11.986;2022-10-16T04:04:28;13.30;;;2.67;;
14817;SDS011;7500;57.698;11.986;2022-10-16T04:06:55;8.63;;;2.70;;
14817;SDS011;7500;57.698;11.986;2022-10-16T04:09:22;15.00;;;3.17;;
14817;SDS011;7500;57.698;11.986;2022-10-16T04:11:49;11.90;;;2.90;;
14817;SDS011;7500;57.698;11.986;2022-10-16T04:14:17;11.80;;;3.40;;
14817;SDS011;7500;57.698;11.986;2022-10-16T04:16:44;11.30;;;3.00;;
14817;SDS011;7500;57.698;11.986;2022-10-16T04:19:11;10.00;;;2.90;;
14817;SDS011;7500;57.698;11.986;2022-10-16T04:21:38;8.03;;;2.70;;
14817;SDS011;7500;57.698;11.986;2022-10-16T04:24:05;13.83;;;3.20;;
14817;SDS011;7500;57.698;11.986;2022-10-16T04:26:32;12.17;;;3.23;;
14817;SDS011;7500;57.698;11.986;2022-10-16T04:28:59;13.07;;;3.20;;
14817;SDS011;7500;57.698;11.986;2022-10-16T04:31:27;10.57;;;3.17;;
14817;SDS011;7500;57.698;11.986;2022-10-16T04:33:54;14.83;;;3.03;;
14817;SDS011;7500;57.698;11.986;2022-10-16T04:36:21;11.17;;;3.20;;
14817;SDS011;7500;57.698;11.986;2022-10-16T04:38:48;11.23;;;3.37;;
14817;SDS011;7500;57.698;11.986;2022-10-16T04:41:14;11.10;;;2.93;;
14817;SDS011;7500;57.698;11.986;2022-10-16T04:43:41;11.90;;;3.17;;
14817;SDS011;7500;57.698;11.986;2022-10-16T04:46:08;9.23;;;2.90;;
14817;SDS011;7500;57.698;11.986;2022-10-16T04:48:36;16.50;;;3.30;;
14817;SDS011;7500;57.698;11.986;2022-10-16T04:51:03;13.67;;;3.60;;
14817;SDS011;7500;57.698;11.986;2022-10-16T04:53:30;10.00;;;3.70;;
14817;SDS011;7500;57.698;11.986;2022-10-16T04:55:57;12.43;;;3.37;;
14817;SDS011;7500;57.698;11.986;2022-10-16T04:58:24;16.27;;;3.27;;
14817;SDS011;7500;57.698;11.986;2022-10-16T05:00:50;14.63;;;3.60;;
14817;SDS011;7500;57.698;11.986;2022-10-16T05:03:17;9.73;;;2.53;;
14817;SDS011;7500;57.698;11.986;2022-10-16T05:05:46;10.27;;;3.37;;
14817;SDS011;7500;57.698;11.986;2022-10-16T05:08:13;14.00;;;3.10;;
14817;SDS011;7500;57.698;11.986;2022-10-16T05:10:41;10.80;;;3.10;;
14817;SDS011;7500;57.698;11.986;2022-10-16T05:13:09;10.60;;;2.80;;
14817;SDS011;7500;57.698;11.986;2022-10-16T05:15:36;15.73;;;4.03;;
14817;SDS011;7500;57.698;11.986;2022-10-16T05:18:03;7.57;;;2.80;;
14817;SDS011;7500;57.698;11.986;2022-10-16T05:20:30;13.87;;;3.73;;
14817;SDS011;7500;57.698;11.986;2022-10-16T05:22:58;14.27;;;3.30;;
14817;SDS011;7500;57.698;11.986;2022-10-16T05:25:25;10.73;;;3.20;;
14817;SDS011;7500;57.698;11.986;2022-10-16T05:27:52;11.70;;;3.33;;
14817;SDS011;7500;57.698;11.986;2022-10-16T05:30:19;8.97;;;3.00;;
14817;SDS011;7500;57.698;11.986;2022-10-16T05:32:48;14.40;;;3.30;;
14817;SDS011;7500;57.698;11.986;2022-10-16T05:35:16;14.13;;;2.97;;
14817;SDS011;7500;57.698;11.986;2022-10-16T05:37:44;7.60;;;3.40;;
14817;SDS011;7500;57.698;11.986;2022-10-16T05:40:12;18.03;;;4.03;;
14817;SDS011;7500;57.698;11.986;2022-10-16T05:42:39;10.43;;;3.80;;
14817;SDS011;7500;57.698;11.986;2022-10-16T05:45:07;10.50;;;3.50;;
14817;SDS011;7500;57.698;11.986;2022-10-16T05:47:36;14.33;;;3.93;;
14817;SDS011;7500;57.698;11.986;2022-10-16T05:50:03;10.47;;;3.23;;
14817;SDS011;7500;57.698;11.986;2022-10-16T05:52:30;11.73;;;3.43;;
14817;SDS011;7500;57.698;11.986;2022-10-16T05:54:57;13.50;;;3.87;;
14817;SDS011;7500;57.698;11.986;2022-10-16T05:57:25;13.67;;;3.70;;
14817;SDS011;7500;57.698;11.986;2022-10-16T05:59:52;10.77;;;3.83;;
14817;SDS011;7500;57.698;11.986;2022-10-16T06:02:19;11.93;;;3.60;;
14817;SDS011;7500;57.698;11.986;2022-10-16T06:04:45;15.40;;;4.30;;
14817;SDS011;7500;57.698;11.986;2022-10-16T06:07:12;11.37;;;3.73;;
14817;SDS011;7500;57.698;11.986;2022-10-16T06:09:39;13.23;;;4.47;;
14817;SDS011;7500;57.698;11.986;2022-10-16T06:12:06;9.93;;;4.30;;
14817;SDS011;7500;57.698;11.986;2022-10-16T06:14:34;11.13;;;4.07;;
14817;SDS011;7500;57.698;11.986;2022-10-16T06:17:00;12.53;;;4.57;;
14817;SDS011;7500;57.698;11.986;2022-10-16T06:19:27;13.87;;;4.13;;
14817;SDS011;7500;57.698;11.986;2022-10-16T06:21:54;16.10;;;5.73;;
14817;SDS011;7500;57.698;11.986;2022-10-16T06:24:23;20.13;;;4.97;;
14817;SDS011;7500;57.698;11.986;2022-10-16T06:26:49;13.37;;;5.00;;
14817;SDS011;7500;57.698;11.986;2022-10-16T06:29:16;11.20;;;4.90;;
14817;SDS011;7500;57.698;11.986;2022-10-16T06:31:44;11.10;;;4.70;;
14817;SDS011;7500;57.698;11.986;2022-10-16T06:34:11;13.80;;;4.90;;
14817;SDS011;7500;57.698;11.986;2022-10-16T06:36:38;11.60;;;4.90;;
14817;SDS011;7500;57.698;11.986;2022-10-16T06:39:05;12.40;;;5.03;;
14817;SDS011;7500;57.698;11.986;2022-10-16T06:41:33;11.73;;;4.60;;
14817;SDS011;7500;57.698;11.986;2022-10-16T06:44:00;14.43;;;5.40;;
14817;SDS011;7500;57.698;11.986;2022-10-16T06:46:27;12.93;;;4.93;;
14817;SDS011;7500;57.698;11.986;2022-10-16T06:48:55;11.53;;;4.27;;
14817;SDS011;7500;57.698;11.986;2022-10-16T06:51:22;12.77;;;5.03;;
14817;SDS011;7500;57.698;11.986;2022-10-16T06:53:51;10.40;;;3.93;;
14817;SDS011;7500;57.698;11.986;2022-10-16T06:56:19;9.80;;;3.97;;
14817;SDS011;7500;57.698;11.986;2022-10-16T06:58:48;11.43;;;4.70;;
14817;SDS011;7500;57.698;11.986;2022-10-16T07:01:16;8.50;;;3.83;;
14817;SDS011;7500;57.698;11.986;2022-10-16T07:03:44;6.83;;;3.50;;
14817;SDS011;7500;57.698;11.986;2022-10-16T07:06:17;12.03;;;3.67;;
14817;SDS011;7500;57.698;11.986;2022-10-16T07:08:46;10.73;;;3.13;;
14817;SDS011;7500;57.698;11.986;2022-10-16T07:11:13;9.77;;;3.23;;
14817;SDS011;7500;57.698;11.986;2022-10-16T07:13:42;9.23;;;3.07;;
14817;SDS011;7500;57.698;11.986;2022-10-16T07:16:11;9.47;;;3.00;;
14817;SDS011;7500;57.698;11.986;2022-10-16T07:18:39;9.60;;;2.90;;
14817;SDS011;7500;57.698;11.986;2022-10-16T07:21:08;10.47;;;2.67;;
14817;SDS011;7500;57.698;11.986;2022-10-16T07:23:38;7.27;;;2.53;;
14817;SDS011;7500;57.698;11.986;2022-10-16T07:26:05;5.70;;;2.10;;
14817;SDS011;7500;57.698;11.986;2022-10-16T07:28:33;8.13;;;2.30;;
14817;SDS011;7500;57.698;11.986;2022-10-16T07:31:01;12.87;;;2.50;;
14817;SDS011;7500;57.698;11.986;2022-10-16T07:33:29;10.13;;;2.33;;
14817;SDS011;7500;57.698;11.986;2022-10-16T07:35:56;8.07;;;2.23;;
14817;SDS011;7500;57.698;11.986;2022-10-16T07:38:23;5.73;;;2.40;;
14817;SDS011;7500;57.698;11.986;2022-10-16T07:40:56;8.53;;;2.30;;
14817;SDS011;7500;57.698;11.986;2022-10-16T07:43:24;10.27;;;2.13;;
14817;SDS011;7500;57.698;11.986;2022-10-16T07:45:51;9.10;;;2.30;;
14817;SDS011;7500;57.698;11.986;2022-10-16T07:48:18;8.27;;;2.13;;
14817;SDS011;7500;57.698;11.986;2022-10-16T07:50:46;8.10;;;2.23;;
14817;SDS011;7500;57.698;11.986;2022-10-16T07:53:14;9.53;;;2.27;;
14817;SDS011;7500;57.698;11.986;2022-10-16T07:55:41;9.77;;;2.10;;
14817;SDS011;7500;57.698;11.986;2022-10-16T07:58:09;10.37;;;2.20;;
14817;SDS011;7500;57.698;11.986;2022-10-16T08:00:36;9.37;;;2.63;;
14817;SDS011;7500;57.698;11.986;2022-10-16T08:03:03;9.07;;;2.30;;
14817;SDS011;7500;57.698;11.986;2022-10-16T08:05:31;14.37;;;2.83;;
14817;SDS011;7500;57.698;11.986;2022-10-16T08:07:59;12.07;;;2.60;;
14817;SDS011;7500;57.698;11.986;2022-10-16T08:10:26;9.43;;;2.50;;
14817;SDS011;7500;57.698;11.986;2022-10-16T08:12:54;10.97;;;2.47;;
14817;SDS011;7500;57.698;11.986;2022-10-16T08:15:22;13.40;;;2.50;;
14817;SDS011;7500;57.698;11.986;2022-10-16T08:17:56;9.77;;;2.27;;
14817;SDS011;7500;57.698;11.986;2022-10-16T08:20:24;11.27;;;2.50;;
14817;SDS011;7500;57.698;11.986;2022-10-16T08:22:52;9.40;;;2.43;;
14817;SDS011;7500;57.698;11.986;2022-10-16T08:25:19;12.93;;;2.80;;
14817;SDS011;7500;57.698;11.986;2022-10-16T08:27:46;11.00;;;2.70;;
14817;SDS011;7500;57.698;11.986;2022-10-16T08:30:13;9.83;;;2.53;;
14817;SDS011;7500;57.698;11.986;2022-10-16T08:32:42;10.17;;;2.93;;
14817;SDS011;7500;57.698;11.986;2022-10-16T08:35:09;11.97;;;2.47;;
14817;SDS011;7500;57.698;11.986;2022-10-16T08:37:37;13.23;;;3.33;;
14817;SDS011;7500;57.698;11.986;2022-10-16T08:40:05;11.50;;;3.10;;
14817;SDS011;7500;57.698;11.986;2022-10-16T08:42:43;14.60;;;3.10;;
14817;SDS011;7500;57.698;11.986;2022-10-16T08:45:21;11.37;;;2.60;;
14817;SDS011;7500;57.698;11.986;2022-10-16T08:48:05;8.90;;;2.37;;
14817;SDS011;7500;57.698;11.986;2022-10-16T08:50:40;13.80;;;2.90;;
14817;SDS011;7500;57.698;11.986;2022-10-16T08:53:09;18.33;;;3.30;;
14817;SDS011;7500;57.698;11.986;2022-10-16T08:55:42;16.50;;;3.07;;
14817;SDS011;7500;57.698;11.986;2022-10-16T08:58:12;14.82;;;3.42;;
14817;SDS011;7500;57.698;11.986;2022-10-16T09:00:40;10.43;;;3.30;;
14817;SDS011;7500;57.698;11.986;2022-10-16T09:03:13;12.50;;;3.07;;
14817;SDS011;7500;57.698;11.986;2022-10-16T09:05:52;13.17;;;2.80;;
14817;SDS011;7500;57.698;11.986;2022-10-16T09:08:30;16.83;;;3.87;;
14817;SDS011;7500;57.698;11.986;2022-10-16T09:11:07;16.80;;;3.40;;
14817;SDS011;7500;57.698;11.986;2022-10-16T09:13:43;16.50;;;3.70;;
14817;SDS011;7500;57.698;11.986;2022-10-16T09:16:16;18.73;;;4.17;;
14817;SDS011;7500;57.698;11.986;2022-10-16T09:18:53;14.93;;;3.37;;
14817;SDS011;7500;57.698;11.986;2022-10-16T09:21:26;17.57;;;3.63;;
14817;SDS011;7500;57.698;11.986;2022-10-16T09:23:57;14.30;;;3.13;;
14817;SDS011;7500;57.698;11.986;2022-10-16T09:26:25;21.53;;;3.83;;
14817;SDS011;7500;57.698;11.986;2022-10-16T09:28:52;15.23;;;3.50;;
14817;SDS011;7500;57.698;11.986;2022-10-16T09:31:20;20.70;;;4.10;;
14817;SDS011;7500;57.698;11.986;2022-10-16T09:33:50;13.40;;;3.30;;
14817;SDS011;7500;57.698;11.986;2022-10-16T09:36:21;13.57;;;2.93;;
14817;SDS011;7500;57.698;11.986;2022-10-16T09:38:50;20.70;;;3.97;;
14817;SDS011;7500;57.698;11.986;2022-10-16T09:41:27;16.43;;;3.40;;
14817;SDS011;7500;57.698;11.986;2022-10-16T09:43:54;20.73;;;3.73;;
14817;SDS011;7500;57.698;11.986;2022-10-16T09:46:26;14.67;;;3.23;;
14817;SDS011;7500;57.698;11.986;2022-10-16T09:48:57;13.67;;;3.40;;
14817;SDS011;7500;57.698;11.986;2022-10-16T09:51:26;12.23;;;3.47;;
14817;SDS011;7500;57.698;11.986;2022-10-16T09:53:55;14.83;;;3.60;;
14817;SDS011;7500;57.698;11.986;2022-10-16T09:56:25;11.33;;;2.80;;
14817;SDS011;7500;57.698;11.986;2022-10-16T09:58:53;13.23;;;3.10;;
14817;SDS011;7500;57.698;11.986;2022-10-16T10:01:22;16.70;;;3.43;;
14817;SDS011;7500;57.698;11.986;2022-10-16T10:03:57;14.57;;;2.97;;
14817;SDS011;7500;57.698;11.986;2022-10-16T10:06:28;19.57;;;3.87;;
14817;SDS011;7500;57.698;11.986;2022-10-16T10:09:02;16.00;;;3.60;;
14817;SDS011;7500;57.698;11.986;2022-10-16T10:11:41;14.43;;;3.43;;
14817;SDS011;7500;57.698;11.986;2022-10-16T10:14:18;17.60;;;3.30;;
14817;SDS011;7500;57.698;11.986;2022-10-16T10:17:01;13.73;;;3.07;;
14817;SDS011;7500;57.698;11.986;2022-10-16T10:19:40;11.30;;;2.90;;
14817;SDS011;7500;57.698;11.986;2022-10-16T10:22:25;15.60;;;3.50;;
14817;SDS011;7500;57.698;11.986;2022-10-16T10:25:10;14.10;;;2.83;;
14817;SDS011;7500;57.698;11.986;2022-10-16T10:27:46;20.27;;;3.50;;
14817;SDS011;7500;57.698;11.986;2022-10-16T10:30:24;13.83;;;2.90;;
14817;SDS011;7500;57.698;11.986;2022-10-16T10:33:00;12.50;;;2.83;;
14817;SDS011;7500;57.698;11.986;2022-10-16T10:35:42;13.67;;;3.17;;
14817;SDS011;7500;57.698;11.986;2022-10-16T10:38:22;16.57;;;3.50;;
14817;SDS011;7500;57.698;11.986;2022-10-16T10:40:59;10.90;;;3.30;;
14817;SDS011;7500;57.698;11.986;2022-10-16T10:43:41;13.67;;;3.43;;
14817;SDS011;7500;57.698;11.986;2022-10-16T10:46:19;16.07;;;3.43;;
14817;SDS011;7500;57.698;11.986;2022-10-16T10:49:17;14.47;;;3.20;;
14817;SDS011;7500;57.698;11.986;2022-10-16T10:51:56;20.23;;;3.67;;
14817;SDS011;7500;57.698;11.986;2022-10-16T10:54:38;14.13;;;2.77;;
14817;SDS011;7500;57.698;11.986;2022-10-16T10:57:15;10.63;;;2.63;;
14817;SDS011;7500;57.698;11.986;2022-10-16T10:59:57;12.20;;;2.90;;
14817;SDS011;7500;57.698;11.986;2022-10-16T11:02:32;14.93;;;3.30;;
14817;SDS011;7500;57.698;11.986;2022-10-16T11:08:06;18.10;;;3.80;;
14817;SDS011;7500;57.698;11.986;2022-10-16T11:10:40;19.70;;;4.07;;
14817;SDS011;7500;57.698;11.986;2022-10-16T11:13:16;25.00;;;4.20;;
14817;SDS011;7500;57.698;11.986;2022-10-16T11:15:50;18.20;;;4.27;;
14817;SDS011;7500;57.698;11.986;2022-10-16T11:18:24;20.13;;;4.17;;
14817;SDS011;7500;57.698;11.986;2022-10-16T11:20:57;19.23;;;4.30;;
14817;SDS011;7500;57.698;11.986;2022-10-16T11:23:30;18.57;;;4.07;;
14817;SDS011;7500;57.698;11.986;2022-10-16T11:26:04;22.17;;;4.20;;
14817;SDS011;7500;57.698;11.986;2022-10-16T11:28:39;17.63;;;4.47;;
14817;SDS011;7500;57.698;11.986;2022-10-16T11:31:13;19.47;;;3.67;;
14817;SDS011;7500;57.698;11.986;2022-10-16T11:33:46;18.67;;;3.40;;
14817;SDS011;7500;57.698;11.986;2022-10-16T11:36:19;16.80;;;3.67;;
14817;SDS011;7500;57.698;11.986;2022-10-16T11:38:51;20.90;;;3.63;;
14817;SDS011;7500;57.698;11.986;2022-10-16T11:41:25;17.47;;;3.83;;
14817;SDS011;7500;57.698;11.986;2022-10-16T11:44:04;17.63;;;3.87;;
14817;SDS011;7500;57.698;11.986;2022-10-16T11:46:40;20.10;;;4.40;;
14817;SDS011;7500;57.698;11.986;2022-10-16T11:49:18;13.37;;;3.30;;
14817;SDS011;7500;57.698;11.986;2022-10-16T11:51:51;16.87;;;3.53;;
14817;SDS011;7500;57.698;11.986;2022-10-16T11:54:28;13.40;;;3.17;;
14817;SDS011;7500;57.698;11.986;2022-10-16T11:57:05;14.07;;;2.97;;
14817;SDS011;7500;57.698;11.986;2022-10-16T11:59:38;14.60;;;3.60;;
14817;SDS011;7500;57.698;11.986;2022-10-16T12:02:25;17.57;;;3.33;;
14817;SDS011;7500;57.698;11.986;2022-10-16T12:05:02;13.03;;;2.30;;
14817;SDS011;7500;57.698;11.986;2022-10-16T12:07:41;14.73;;;2.53;;
14817;SDS011;7500;57.698;11.986;2022-10-16T12:10:23;17.33;;;2.90;;
14817;SDS011;7500;57.698;11.986;2022-10-16T12:12:52;21.70;;;3.50;;
14817;SDS011;7500;57.698;11.986;2022-10-16T12:15:20;25.43;;;3.60;;
14817;SDS011;7500;57.698;11.986;2022-10-16T12:17:49;40.17;;;4.27;;
14817;SDS011;7500;57.698;11.986;2022-10-16T12:20:20;26.63;;;3.70;;
14817;SDS011;7500;57.698;11.986;2022-10-16T12:22:51;35.83;;;4.07;;
14817;SDS011;7500;57.698;11.986;2022-10-16T12:25:22;27.30;;;4.17;;
14817;SDS011;7500;57.698;11.986;2022-10-16T12:27:57;30.17;;;4.87;;
14817;SDS011;7500;57.698;11.986;2022-10-16T12:30:27;20.93;;;3.43;;
14817;SDS011;7500;57.698;11.986;2022-10-16T12:32:56;24.83;;;3.63;;
14817;SDS011;7500;57.698;11.986;2022-10-16T12:35:25;27.13;;;3.83;;
14817;SDS011;7500;57.698;11.986;2022-10-16T12:37:54;30.97;;;3.57;;
14817;SDS011;7500;57.698;11.986;2022-10-16T12:40:42;27.50;;;3.87;;
14817;SDS011;7500;57.698;11.986;2022-10-16T12:43:13;30.47;;;3.80;;
14817;SDS011;7500;57.698;11.986;2022-10-16T12:45:59;21.50;;;3.43;;
14817;SDS011;7500;57.698;11.986;2022-10-16T12:48:30;21.77;;;2.87;;
14817;SDS011;7500;57.698;11.986;2022-10-16T12:50:57;23.73;;;2.67;;
14817;SDS011;7500;57.698;11.986;2022-10-16T12:53:25;23.13;;;3.10;;
14817;SDS011;7500;57.698;11.986;2022-10-16T12:56:00;25.40;;;3.30;;
14817;SDS011;7500;57.698;11.986;2022-10-16T13:01:33;22.57;;;3.00;;
14817;SDS011;7500;57.698;11.986;2022-10-16T13:04:16;22.87;;;3.43;;
14817;SDS011;7500;57.698;11.986;2022-10-16T13:07:20;19.50;;;3.20;;
14817;SDS011;7500;57.698;11.986;2022-10-16T13:10:01;15.03;;;2.40;;
14817;SDS011;7500;57.698;11.986;2022-10-16T13:12:45;9.70;;;2.23;;
14817;SDS011;7500;57.698;11.986;2022-10-16T13:15:27;10.97;;;2.60;;
14817;SDS011;7500;57.698;11.986;2022-10-16T13:18:03;11.83;;;2.60;;
14817;SDS011;7500;57.698;11.986;2022-10-16T13:20:38;8.90;;;2.30;;
14817;SDS011;7500;57.698;11.986;2022-10-16T13:23:13;10.50;;;2.30;;
14817;SDS011;7500;57.698;11.986;2022-10-16T13:25:50;10.03;;;2.90;;
14817;SDS011;7500;57.698;11.986;2022-10-16T13:28:29;13.33;;;2.73;;
14817;SDS011;7500;57.698;11.986;2022-10-16T13:30:58;8.10;;;2.07;;
14817;SDS011;7500;57.698;11.986;2022-10-16T13:33:28;12.10;;;2.30;;
14817;SDS011;7500;57.698;11.986;2022-10-16T13:35:59;12.10;;;2.10;;
14817;SDS011;7500;57.698;11.986;2022-10-16T13:38:26;11.50;;;2.53;;
14817;SDS011;7500;57.698;11.986;2022-10-16T13:40:55;12.50;;;2.57;;
14817;SDS011;7500;57.698;11.986;2022-10-16T13:43:24;11.23;;;2.20;;
14817;SDS011;7500;57.698;11.986;2022-10-16T13:45:59;13.33;;;2.40;;
14817;SDS011;7500;57.698;11.986;2022-10-16T13:48:28;14.63;;;2.53;;
14817;SDS011;7500;57.698;11.986;2022-10-16T13:51:06;10.40;;;2.73;;
14817;SDS011;7500;57.698;11.986;2022-10-16T13:53:38;14.77;;;2.37;;
14817;SDS011;7500;57.698;11.986;2022-10-16T13:56:06;12.47;;;2.80;;
14817;SDS011;7500;57.698;11.986;2022-10-16T13:58:36;12.03;;;2.30;;
14817;SDS011;7500;57.698;11.986;2022-10-16T14:01:05;11.07;;;2.80;;
14817;SDS011;7500;57.698;11.986;2022-10-16T14:03:41;9.93;;;2.30;;
14817;SDS011;7500;57.698;11.986;2022-10-16T14:06:11;8.60;;;2.47;;
14817;SDS011;7500;57.698;11.986;2022-10-16T14:08:41;14.10;;;3.00;;
14817;SDS011;7500;57.698;11.986;2022-10-16T14:11:11;12.30;;;2.73;;
14817;SDS011;7500;57.698;11.986;2022-10-16T14:13:39;13.77;;;2.77;;
14817;SDS011;7500;57.698;11.986;2022-10-16T14:16:15;9.83;;;2.87;;
14817;SDS011;7500;57.698;11.986;2022-10-16T14:18:45;13.60;;;2.93;;
14817;SDS011;7500;57.698;11.986;2022-10-16T14:21:17;15.53;;;3.27;;
14817;SDS011;7500;57.698;11.986;2022-10-16T14:23:45;12.07;;;3.30;;
14817;SDS011;7500;57.698;11.986;2022-10-16T14:26:12;12.50;;;3.00;;
14817;SDS011;7500;57.698;11.986;2022-10-16T14:28:41;18.17;;;3.57;;
14817;SDS011;7500;57.698;11.986;2022-10-16T14:34:04;11.47;;;2.87;;
14817;SDS011;7500;57.698;11.986;2022-10-16T14:36:52;14.87;;;3.30;;
14817;SDS011;7500;57.698;11.986;2022-10-16T14:39:20;14.23;;;3.37;;
14817;SDS011;7500;57.698;11.986;2022-10-16T14:41:48;13.53;;;2.83;;
14817;SDS011;7500;57.698;11.986;2022-10-16T14:44:18;9.53;;;2.37;;
14817;SDS011;7500;57.698;11.986;2022-10-16T14:46:50;13.37;;;2.60;;
14817;SDS011;7500;57.698;11.986;2022-10-16T14:49:17;17.02;;;3.60;;
14817;SDS011;7500;57.698;11.986;2022-10-16T14:51:46;13.90;;;3.43;;
14817;SDS011;7500;57.698;11.986;2022-10-16T14:54:14;15.77;;;3.13;;
14817;SDS011;7500;57.698;11.986;2022-10-16T14:56:43;11.97;;;2.73;;
14817;SDS011;7500;57.698;11.986;2022-10-16T14:59:14;14.83;;;3.03;;
14817;SDS011;7500;57.698;11.986;2022-10-16T15:01:44;12.73;;;2.60;;
14817;SDS011;7500;57.698;11.986;2022-10-16T15:04:12;16.20;;;3.60;;
14817;SDS011;7500;57.698;11.986;2022-10-16T15:06:40;12.77;;;3.37;;